createdAt,value
2022-08-17T00:01:27.643Z,70.40
2022-08-17T00:04:10.908Z,71.01
2022-08-17T00:06:53.949Z,71.10
2022-08-17T00:09:35.847Z,71.89
2022-08-17T00:12:43.611Z,72.26
2022-08-17T00:15:21.245Z,72.55
2022-08-17T00:18:03.548Z,72.82
2022-08-17T00:21:10.490Z,73.10
2022-08-17T00:23:53.562Z,73.37
2022-08-17T00:26:45.182Z,73.84
2022-08-17T00:29:27.381Z,74.01
2022-08-17T00:33:15.853Z,74.20
2022-08-17T00:35:12.471Z,74.15
2022-08-17T00:37:54.369Z,74.83
2022-08-17T00:40:40.846Z,75.08
2022-08-17T00:43:38.230Z,75.10
2022-08-17T00:46:28.625Z,75.84
2022-08-17T00:49:11.749Z,75.72
2022-08-17T00:51:56.324Z,75.61
2022-08-17T00:54:41.971Z,76.17
2022-08-17T00:57:35.560Z,76.58
2022-08-17T01:00:21.555Z,76.47
2022-08-17T01:03:06.829Z,76.44
2022-08-17T01:05:51.385Z,76.69
2022-08-17T01:08:33.691Z,76.57
2022-08-17T01:11:15.690Z,76.47
2022-08-17T01:13:58.608Z,76.58
2022-08-17T01:16:40.505Z,76.69
2022-08-17T01:19:24.449Z,76.83
2022-08-17T01:22:09.318Z,76.92
2022-08-17T01:24:53.872Z,77.19
2022-08-17T01:27:36.382Z,77.40
2022-08-17T01:30:57.810Z,77.45
2022-08-17T01:33:20.554Z,77.31
2022-08-17T01:36:02.965Z,77.57
2022-08-17T01:38:44.756Z,77.59
2022-08-17T01:41:27.365Z,77.78
2022-08-17T01:44:09.466Z,77.71
2022-08-17T01:46:51.258Z,77.76
2022-08-17T01:49:34.374Z,77.76
2022-08-17T01:52:17.304Z,77.69
2022-08-17T01:54:59.506Z,77.58
2022-08-17T01:57:41.402Z,78.03
2022-08-17T02:00:23.198Z,78.31
2022-08-17T02:03:05.706Z,78.75
2022-08-17T02:05:49.173Z,79.11
2022-08-17T02:08:38.794Z,79.13
2022-08-17T02:11:21.940Z,79.26
2022-08-17T02:14:05.782Z,79.36
2022-08-17T02:16:47.580Z,79.44
2022-08-17T02:19:31.519Z,79.57
2022-08-17T02:22:13.414Z,79.70
2022-08-17T02:24:58.475Z,79.75
2022-08-17T02:27:43.350Z,79.88
2022-08-17T02:30:59.265Z,80.00
2022-08-17T02:33:41.637Z,79.86
2022-08-17T02:36:27.425Z,79.91
2022-08-17T02:39:10.869Z,80.22
2022-08-17T02:42:00.137Z,80.07
2022-08-17T02:44:41.931Z,80.04
2022-08-17T02:47:24.339Z,80.22
2022-08-17T02:50:07.057Z,80.41
2022-08-17T02:53:01.778Z,80.36
2022-08-17T02:55:44.568Z,80.34
2022-08-17T02:58:35.233Z,80.52
2022-08-17T03:01:17.842Z,80.59
2022-08-17T03:03:59.880Z,80.76
2022-08-17T03:06:41.776Z,80.68
2022-08-17T03:09:23.570Z,80.68
2022-08-17T03:12:13.146Z,80.72
2022-08-17T03:14:55.037Z,80.79
2022-08-17T03:17:37.447Z,80.93
2022-08-17T03:20:20.368Z,80.90
2022-08-17T03:23:03.036Z,81.00
2022-08-17T03:25:46.722Z,81.19
2022-08-17T03:28:28.615Z,81.03
2022-08-17T03:31:10.512Z,81.29
2022-08-17T03:33:52.351Z,81.30
2022-08-17T03:36:36.053Z,81.44
2022-08-17T03:39:18.144Z,81.46
2022-08-17T03:42:32.072Z,81.53
2022-08-17T03:45:17.264Z,81.86
2022-08-17T03:48:17.900Z,81.69
2022-08-17T03:51:18.267Z,81.93
2022-08-17T03:54:18.860Z,81.97
2022-08-17T03:57:06.933Z,81.94
2022-08-17T03:59:48.844Z,81.87
2022-08-17T04:02:31.924Z,82.00
2022-08-17T04:05:15.167Z,82.04
2022-08-17T04:07:56.943Z,82.03
2022-08-17T04:10:44.809Z,82.26
2022-08-17T04:13:27.492Z,82.31
2022-08-17T04:16:09.286Z,82.20
2022-08-17T04:18:51.441Z,82.11
2022-08-17T04:21:33.642Z,81.98
2022-08-17T04:24:15.486Z,81.83
2022-08-17T04:26:57.484Z,81.66
2022-08-17T04:29:55.071Z,81.64
2022-08-17T04:33:10.236Z,81.72
2022-08-17T04:35:54.269Z,81.63
2022-08-17T04:38:37.701Z,81.61
2022-08-17T04:41:38.438Z,81.47
2022-08-17T04:44:36.830Z,81.45
2022-08-17T04:47:19.842Z,81.12
2022-08-17T04:50:04.298Z,81.13
2022-08-17T04:52:46.604Z,81.02
2022-08-17T04:55:28.707Z,80.82
2022-08-17T04:58:11.009Z,80.72
2022-08-17T05:00:53.988Z,80.58
2022-08-17T05:03:35.928Z,80.46
2022-08-17T05:06:17.822Z,80.39
2022-08-17T05:09:00.334Z,80.29
2022-08-17T05:11:44.931Z,79.99
2022-08-17T05:14:32.921Z,79.56
2022-08-17T05:17:15.696Z,79.52
2022-08-17T05:19:57.646Z,79.45
2022-08-17T05:22:51.512Z,79.16
2022-08-17T05:25:36.209Z,79.05
2022-08-17T05:28:22.930Z,78.81
2022-08-17T05:31:06.109Z,78.72
2022-08-17T05:33:47.899Z,78.77
2022-08-17T05:36:42.111Z,78.67
2022-08-17T05:39:25.930Z,78.33
2022-08-17T05:42:07.832Z,78.35
2022-08-17T05:44:49.727Z,78.12
2022-08-17T05:47:31.520Z,77.92
2022-08-17T05:50:21.160Z,78.04
2022-08-17T05:53:18.407Z,77.62
2022-08-17T05:56:00.145Z,76.87
2022-08-17T05:59:01.907Z,76.93
2022-08-17T06:02:03.157Z,76.41
2022-08-17T06:05:01.436Z,75.43
2022-08-17T06:07:49.517Z,74.60
2022-08-17T06:10:46.835Z,74.97
2022-08-17T06:13:48.087Z,74.14
2022-08-17T06:16:34.397Z,73.47
2022-08-17T06:19:32.970Z,73.80
2022-08-17T06:22:16.710Z,72.56
2022-08-17T06:25:02.611Z,72.16
2022-08-17T06:27:53.584Z,71.11
2022-08-17T06:30:58.642Z,71.01
2022-08-17T06:33:45.792Z,68.94
2022-08-17T06:36:33.599Z,68.01
2022-08-17T06:39:34.162Z,68.57
2022-08-17T06:43:02.330Z,67.97
2022-08-17T06:45:31.410Z,67.34
2022-08-17T06:48:24.571Z,66.31
2022-08-17T06:51:11.586Z,64.76
2022-08-17T06:53:59.829Z,63.84
2022-08-17T06:57:00.259Z,64.59
2022-08-17T06:59:56.160Z,61.77
2022-08-17T07:02:53.157Z,60.04
2022-08-17T07:05:54.016Z,61.08
2022-08-17T07:08:55.529Z,59.97
2022-08-17T07:11:45.617Z,60.73
2022-08-17T07:14:27.413Z,58.13
2022-08-17T07:17:10.949Z,56.76
2022-08-17T07:19:57.041Z,56.66
2022-08-17T07:22:55.263Z,56.35
2022-08-17T07:25:42.130Z,55.44
2022-08-17T07:28:24.028Z,55.50
2022-08-17T07:31:07.252Z,56.48
2022-08-17T07:33:59.597Z,56.37
2022-08-17T07:36:42.416Z,54.66
2022-08-17T07:39:28.180Z,54.21
2022-08-17T07:42:10.810Z,53.95
2022-08-17T07:44:54.345Z,54.09
2022-08-17T07:47:55.593Z,51.97
2022-08-17T07:50:37.374Z,52.16
2022-08-17T07:53:20.920Z,52.80
2022-08-17T07:56:02.919Z,50.81
2022-08-17T07:58:47.784Z,50.37
2022-08-17T08:01:41.621Z,50.68
2022-08-17T08:07:36.685Z,50.02
2022-08-17T08:10:31.381Z,48.74
2022-08-17T08:13:14.730Z,47.90
2022-08-17T08:16:12.274Z,47.21
2022-08-17T08:18:57.561Z,46.64
2022-08-17T08:21:39.956Z,46.20
2022-08-17T08:24:34.241Z,46.59
2022-08-17T08:27:22.281Z,47.73
2022-08-17T08:30:14.626Z,45.78
2022-08-17T08:33:17.410Z,44.45
2022-08-17T08:36:09.852Z,44.73
2022-08-17T08:38:57.523Z,45.19
2022-08-17T08:41:57.711Z,44.32
2022-08-17T08:45:00.663Z,43.63
2022-08-17T08:48:22.789Z,41.81
2022-08-17T08:51:24.496Z,43.53
2022-08-17T08:54:13.459Z,42.13
2022-08-17T09:00:17.971Z,40.61
2022-08-17T09:03:06.372Z,42.10
2022-08-17T09:06:32.146Z,43.43
2022-08-17T09:09:18.169Z,41.34
2022-08-17T09:12:05.514Z,41.05
2022-08-17T09:14:50.561Z,41.00
2022-08-17T09:17:38.501Z,39.70
2022-08-17T09:20:28.314Z,38.46
2022-08-17T09:23:14.888Z,37.25
2022-08-17T09:26:05.743Z,38.23
2022-08-17T09:28:49.842Z,38.25
2022-08-17T09:31:49.128Z,37.12
2022-08-17T09:34:33.598Z,37.12
2022-08-17T09:37:30.753Z,36.49
2022-08-17T09:40:23.288Z,34.99
2022-08-17T09:43:05.808Z,33.36
2022-08-17T09:45:57.635Z,35.45
2022-08-17T09:48:42.960Z,35.32
2022-08-17T09:51:30.849Z,33.59
2022-08-17T09:54:38.095Z,33.36
2022-08-17T09:57:39.335Z,34.17
2022-08-17T10:00:27.668Z,34.44
2022-08-17T10:03:16.893Z,33.27
2022-08-17T10:06:21.719Z,32.45
2022-08-17T10:09:06.805Z,33.09
2022-08-17T10:12:11.638Z,31.98
2022-08-17T10:15:09.336Z,32.54
2022-08-17T10:18:09.017Z,31.99
2022-08-17T10:21:19.692Z,32.06
2022-08-17T10:24:29.437Z,32.29
2022-08-17T10:27:13.174Z,30.02
2022-08-17T10:30:04.034Z,30.81
2022-08-17T10:32:57.139Z,30.93
2022-08-17T10:35:51.017Z,32.04
2022-08-17T10:38:46.275Z,31.43
2022-08-17T10:41:50.750Z,32.63
2022-08-17T10:44:51.799Z,33.55
2022-08-17T10:47:55.615Z,33.27
2022-08-17T10:50:47.661Z,32.25
2022-08-17T10:53:32.516Z,33.87
2022-08-17T10:56:14.504Z,33.63
2022-08-17T10:58:57.833Z,34.20
2022-08-17T11:01:40.239Z,32.02
2022-08-17T11:04:36.165Z,33.51
2022-08-17T11:07:27.904Z,34.57
2022-08-17T11:10:22.277Z,33.82
2022-08-17T11:13:07.349Z,32.98
2022-08-17T11:16:09.213Z,32.61
2022-08-17T11:18:51.108Z,31.17
2022-08-17T11:21:56.043Z,30.07
2022-08-17T11:24:40.314Z,30.51
2022-08-17T11:27:31.201Z,29.97
2022-08-17T11:30:32.966Z,29.16
2022-08-17T11:33:38.231Z,30.84
2022-08-17T11:36:46.362Z,28.90
2022-08-17T11:39:31.186Z,29.70
2022-08-17T11:42:31.613Z,29.56
2022-08-17T11:45:33.094Z,30.20
2022-08-17T11:48:49.879Z,30.41
2022-08-17T11:51:50.720Z,31.31
2022-08-17T11:54:34.374Z,31.36
2022-08-17T11:57:19.734Z,31.25
2022-08-17T12:00:08.869Z,31.23
2022-08-17T12:03:10.688Z,31.66
2022-08-17T12:06:01.364Z,32.71
2022-08-17T12:08:45.769Z,31.89
2022-08-17T12:11:58.650Z,32.04
2022-08-17T12:15:08.073Z,32.82
2022-08-17T12:17:52.144Z,32.84
2022-08-17T12:20:40.474Z,32.91
2022-08-17T12:23:36.399Z,32.79
2022-08-17T12:26:19.935Z,33.39
2022-08-17T12:29:07.053Z,33.07
2022-08-17T12:31:52.636Z,33.75
2022-08-17T12:34:36.783Z,34.08
2022-08-17T12:37:21.033Z,34.42
2022-08-17T12:40:08.859Z,33.92
2022-08-17T12:42:55.885Z,32.93
2022-08-17T12:45:39.931Z,32.04
2022-08-17T12:48:23.159Z,31.85
2022-08-17T12:51:07.921Z,31.57
2022-08-17T12:53:53.092Z,32.17
2022-08-17T12:56:36.933Z,32.38
2022-08-17T12:59:29.602Z,32.84
2022-08-17T13:02:19.772Z,33.02
2022-08-17T13:05:01.977Z,33.51
2022-08-17T13:07:44.819Z,32.81
2022-08-17T13:10:32.761Z,31.60
2022-08-17T13:13:23.533Z,32.31
2022-08-17T13:16:05.431Z,32.63
2022-08-17T13:18:49.070Z,31.64
2022-08-17T13:21:33.275Z,32.45
2022-08-17T13:24:19.821Z,32.37
2022-08-17T13:27:01.564Z,31.88
2022-08-17T13:29:53.832Z,32.06
2022-08-17T13:32:47.525Z,31.31
2022-08-17T13:35:41.605Z,30.63
2022-08-17T13:38:41.277Z,30.61
2022-08-17T13:41:30.075Z,31.22
2022-08-17T13:44:32.146Z,31.43
2022-08-17T13:47:19.003Z,32.11
2022-08-17T13:50:00.866Z,31.97
2022-08-17T13:52:44.579Z,31.64
2022-08-17T13:55:29.153Z,31.67
2022-08-17T13:58:10.986Z,31.47
2022-08-17T14:00:53.451Z,31.60
2022-08-17T14:03:35.245Z,32.22
2022-08-17T14:06:51.482Z,32.22
2022-08-17T14:09:20.480Z,31.55
2022-08-17T14:12:04.792Z,31.97
2022-08-17T14:14:46.584Z,31.86
2022-08-17T14:17:36.578Z,32.27
2022-08-17T14:20:21.948Z,32.17
2022-08-17T14:23:03.845Z,32.21
2022-08-17T14:25:47.277Z,32.65
2022-08-17T14:28:29.070Z,33.38
2022-08-17T14:31:10.965Z,32.89
2022-08-17T14:33:52.963Z,33.12
2022-08-17T14:36:34.859Z,33.46
2022-08-17T14:39:17.616Z,34.02
2022-08-17T14:42:00.653Z,34.34
2022-08-17T14:44:42.491Z,33.31
2022-08-17T14:47:24.489Z,33.85
2022-08-17T14:50:09.809Z,34.06
2022-08-17T14:52:52.889Z,33.45
2022-08-17T14:55:35.807Z,33.79
2022-08-17T14:58:18.222Z,33.76
2022-08-17T15:01:00.019Z,33.61
2022-08-17T15:03:42.173Z,33.24
2022-08-17T15:06:25.849Z,33.16
2022-08-17T15:09:07.644Z,33.25
2022-08-17T15:11:50.870Z,33.23
2022-08-17T15:14:33.994Z,33.11
2022-08-17T15:17:15.786Z,33.56
2022-08-17T15:19:57.785Z,33.79
2022-08-17T15:22:41.011Z,33.92
2022-08-17T15:25:23.329Z,33.77
2022-08-17T15:28:05.213Z,33.83
2022-08-17T15:30:47.006Z,33.59
2022-08-17T15:34:41.711Z,33.77
2022-08-17T15:37:28.316Z,33.95
2022-08-17T15:40:11.719Z,33.84
2022-08-17T15:42:54.160Z,34.10
2022-08-17T15:45:36.061Z,33.52
2022-08-17T15:48:18.809Z,33.73
2022-08-17T15:51:01.173Z,33.55
2022-08-17T15:53:45.630Z,33.36
2022-08-17T15:56:28.772Z,33.19
2022-08-17T15:59:10.650Z,33.41
2022-08-17T16:03:13.943Z,33.50
2022-08-17T16:05:06.051Z,33.52
2022-08-17T16:07:53.605Z,33.54
2022-08-17T16:10:36.516Z,33.46
2022-08-17T16:13:19.657Z,33.87
2022-08-17T16:16:01.552Z,33.82
2022-08-17T16:18:43.753Z,33.50
2022-08-17T16:21:26.073Z,33.37
2022-08-17T16:24:13.618Z,33.70
2022-08-17T16:26:57.119Z,34.05
2022-08-17T16:29:40.392Z,33.98
2022-08-17T16:32:31.692Z,33.92
2022-08-17T16:35:18.681Z,34.14
2022-08-17T16:38:00.683Z,34.42
2022-08-17T16:40:42.879Z,34.58
2022-08-17T16:43:24.775Z,34.59
2022-08-17T16:46:06.671Z,34.30
2022-08-17T16:48:48.570Z,34.39
2022-08-17T16:51:31.486Z,34.53
2022-08-17T16:54:17.590Z,34.18
2022-08-17T16:56:59.630Z,34.31
2022-08-17T16:59:44.949Z,34.57
2022-08-17T17:02:34.428Z,34.81
2022-08-17T17:05:58.073Z,34.81
2022-08-17T17:08:48.588Z,34.82
2022-08-17T17:11:42.274Z,34.96
2022-08-17T17:14:32.054Z,35.16
2022-08-17T17:17:28.183Z,35.47
2022-08-17T17:20:18.373Z,35.79
2022-08-17T17:23:09.712Z,35.87
2022-08-17T17:26:03.772Z,36.12
2022-08-17T17:28:59.122Z,36.18
2022-08-17T17:32:21.225Z,36.45
2022-08-17T17:35:09.440Z,36.82
2022-08-17T17:37:57.407Z,36.80
2022-08-17T17:40:44.420Z,36.95
2022-08-17T17:43:38.931Z,37.19
2022-08-17T17:46:35.550Z,37.31
2022-08-17T17:49:18.717Z,37.66
2022-08-17T17:52:15.627Z,38.10
2022-08-17T17:55:28.496Z,38.27
2022-08-17T17:58:36.657Z,38.36
2022-08-17T18:01:30.776Z,38.21
2022-08-17T18:04:23.796Z,38.64
2022-08-17T18:07:25.046Z,38.46
2022-08-17T18:10:45.299Z,39.08
2022-08-17T18:13:43.825Z,38.90
2022-08-17T18:16:27.975Z,39.28
2022-08-17T18:19:15.918Z,39.52
2022-08-17T18:22:04.259Z,39.52
2022-08-17T18:24:56.119Z,39.88
2022-08-17T18:27:40.967Z,40.08
2022-08-17T18:30:29.064Z,39.99
2022-08-17T18:33:26.690Z,40.46
2022-08-17T18:36:09.373Z,40.36
2022-08-17T18:39:12.170Z,40.67
2022-08-17T18:41:57.153Z,40.71
2022-08-17T18:44:39.128Z,40.90
2022-08-17T18:47:26.242Z,41.09
2022-08-17T18:50:43.875Z,41.58
2022-08-17T18:53:30.384Z,41.59
2022-08-17T18:56:17.922Z,41.80
2022-08-17T18:59:10.082Z,42.06
2022-08-17T19:02:10.066Z,42.21
2022-08-17T19:05:17.458Z,42.27
2022-08-17T19:08:18.143Z,42.56
2022-08-17T19:11:07.669Z,42.74
2022-08-17T19:14:02.370Z,43.11
2022-08-17T19:16:54.707Z,43.46
2022-08-17T19:20:06.399Z,43.45
2022-08-17T19:22:58.960Z,43.44
2022-08-17T19:25:50.261Z,43.88
2022-08-17T19:29:02.879Z,43.85
2022-08-17T19:31:48.155Z,44.07
2022-08-17T19:34:34.449Z,44.34
2022-08-17T19:37:43.382Z,44.51
2022-08-17T19:41:05.294Z,44.90
2022-08-17T19:44:17.930Z,45.45
2022-08-17T19:47:43.091Z,45.66
2022-08-17T19:50:56.371Z,46.23
2022-08-17T19:54:06.612Z,46.49
2022-08-17T19:56:56.052Z,46.67
2022-08-17T19:59:49.548Z,47.04
2022-08-17T20:03:16.548Z,47.34
2022-08-17T20:06:18.328Z,47.81
2022-08-17T20:09:22.507Z,47.99
2022-08-17T20:12:11.608Z,48.02
2022-08-17T20:15:00.351Z,48.06
2022-08-17T20:17:46.471Z,48.07
2022-08-17T20:20:59.255Z,48.38
2022-08-17T20:23:59.674Z,48.11
2022-08-17T20:26:55.454Z,48.09
2022-08-17T20:29:55.315Z,48.17
2022-08-17T20:32:55.752Z,48.41
2022-08-17T20:35:39.377Z,48.58
2022-08-17T20:38:50.558Z,48.21
2022-08-17T20:42:03.239Z,48.24
2022-08-17T20:44:46.413Z,48.23
2022-08-17T20:48:00.799Z,48.15
2022-08-17T20:51:02.465Z,48.09
2022-08-17T20:53:47.487Z,48.22
2022-08-17T20:56:44.742Z,48.35
2022-08-17T20:59:27.867Z,48.26
2022-08-17T21:02:19.386Z,48.27
2022-08-17T21:05:07.315Z,48.51
2022-08-17T21:07:56.401Z,48.45
2022-08-17T21:10:40.686Z,48.75
2022-08-17T21:13:46.705Z,48.65
2022-08-17T21:16:36.485Z,48.83
2022-08-17T21:19:54.176Z,49.08
2022-08-17T21:22:55.112Z,48.94
2022-08-17T21:26:14.537Z,49.52
2022-08-17T21:29:32.505Z,49.52
2022-08-17T21:32:24.348Z,49.94
2022-08-17T21:35:07.126Z,49.87
2022-08-17T21:37:53.269Z,50.03
2022-08-17T21:40:35.421Z,50.24
2022-08-17T21:43:29.606Z,50.24
2022-08-17T21:46:27.526Z,50.24
2022-08-17T21:49:14.260Z,50.59
2022-08-17T21:51:59.461Z,50.66
2022-08-17T21:54:49.625Z,50.83
2022-08-17T21:57:35.103Z,51.13
2022-08-17T22:00:29.312Z,51.14
2022-08-17T22:03:24.877Z,51.56
2022-08-17T22:06:24.202Z,51.51
2022-08-17T22:09:26.098Z,51.71
2022-08-17T22:12:11.402Z,51.72
2022-08-17T22:15:06.379Z,51.93
2022-08-17T22:17:48.888Z,52.12
2022-08-17T22:20:31.090Z,52.32
2022-08-17T22:23:33.056Z,52.67
2022-08-17T22:26:18.074Z,52.78
2022-08-17T22:29:00.227Z,52.99
2022-08-17T22:32:08.544Z,52.88
2022-08-17T22:35:16.345Z,53.16
2022-08-17T22:38:18.056Z,53.31
2022-08-17T22:41:26.114Z,53.71
2022-08-17T22:44:28.363Z,53.98
2022-08-17T22:47:21.254Z,54.46
2022-08-17T22:50:12.150Z,54.85
2022-08-17T22:53:20.571Z,55.15
2022-08-17T22:56:22.223Z,55.39
2022-08-17T22:59:20.606Z,55.58
2022-08-17T23:02:24.112Z,56.11
2022-08-17T23:05:10.310Z,56.20
2022-08-17T23:07:53.213Z,56.57
2022-08-17T23:10:36.193Z,56.90
2022-08-17T23:13:18.553Z,57.24
2022-08-17T23:16:00.601Z,57.75
2022-08-17T23:18:42.549Z,57.64
2022-08-17T23:21:29.769Z,57.73
2022-08-17T23:24:17.123Z,58.00
2022-08-17T23:26:59.238Z,58.21
2022-08-17T23:29:42.421Z,58.24
2022-08-17T23:32:25.033Z,58.41
2022-08-17T23:35:09.417Z,58.68
2022-08-17T23:37:52.397Z,59.02
2022-08-17T23:40:34.715Z,58.99
2022-08-17T23:43:25.203Z,58.98
2022-08-17T23:46:07.823Z,59.30
2022-08-17T23:48:53.713Z,59.44
2022-08-17T23:51:42.696Z,59.57
2022-08-17T23:54:27.601Z,59.78
2022-08-17T23:57:15.934Z,59.94
2022-08-17T23:59:57.990Z,60.13
